Latest Weather Observations for Geraldton Airport

IDW60801

Issued at 6:03 pm WST Friday 29 July 2016 (issued every 30 minutes, with the page automatically refreshed every 10 minutes)

About weather observations | Map of weather stations | Latest weather observations for WA | Other Formats
Station Details ID: 008315 Name: GERALDTON AIRPORT Lat: -28.80 Lon: 114.70 Height: 29.7 m
Data from the previous 72 hours. | See also: Recent months at Geraldton Airport
Date/Time
WST
Temp
°C
App
Temp
°C
Dew
Point
°C
Rel
Hum
%
Delta-T
°C
Wind Press
QNH
hPa
Press
MSL
hPa
Rain since
9am
mm
Dir  Spd
km/h
Gust
km/h
Spd
kts
Gust
kts
29/06:00pm 19.9 18.6 16.8 82 1.9 NNW 19 28 10 15 1016.3 1016.3 0.0
29/05:30pm 20.5 18.2 16.6 78 2.4 NNW 24 33 13 18 1016.3 - 0.0
29/05:00pm 21.3 18.8 16.2 72 3.1 NNW 24 32 13 17 1016.1 - 0.0
29/04:30pm 21.5 18.6 16.2 72 3.2 NNW 26 33 14 18 1016.1 - 0.0
29/04:00pm 21.4 17.4 15.2 68 3.7 NW 30 41 16 22 1016.1 - 0.0
29/03:30pm 22.1 16.9 13.5 58 5.0 NW 33 46 18 25 1015.9 - 0.0
29/03:00pm 22.0 17.4 12.3 54 5.5 NW 28 39 15 21 1015.8 1015.8 0.0
29/02:30pm 22.4 16.6 10.8 47 6.4 NW 32 43 17 23 1016.0 - 0.0
29/02:00pm 22.6 16.7 7.7 38 7.8 NNW 28 35 15 19 1015.4 - 0.0
29/01:30pm 22.8 16.5 7.4 37 8.0 NW 30 43 16 23 1015.7 - 0.0
29/01:00pm 24.1 16.7 4.9 29 9.6 NW 33 46 18 25 1015.9 - 0.0
29/12:30pm 24.1 17.8 5.8 30 9.3 NNW 28 39 15 21 1016.1 - 0.0
29/12:00pm 24.1 18.3 6.2 31 9.2 NNW 26 41 14 22 1016.5 1016.5 0.0
29/11:30am 23.2 17.6 5.2 31 9.0 NNW 24 35 13 19 1016.9 - 0.0
29/11:00am 22.6 18.6 9.0 42 7.3 NNW 20 28 11 15 1017.1 - 0.0
29/10:30am 21.2 20.2 13.4 61 4.5 N 11 13 6 7 1017.4 - 0.0
29/10:00am 18.8 15.7 12.3 66 3.6 N 20 26 11 14 1017.3 - 0.0
29/09:30am 17.1 13.9 11.4 69 3.1 NNE 19 22 10 12 1017.3 - 0.0
29/09:00am 15.1 11.4 10.1 72 2.6 NNE 20 26 11 14 1017.4 1017.4 0.0
29/08:30am 14.2 10.5 10.0 76 2.2 N 20 26 11 14 1017.5 - 0.0
29/08:00am 13.6 9.4 9.7 77 2.0 NNE 22 28 12 15 1017.1 - 0.0
29/07:30am 12.6 8.0 9.6 82 1.5 NNE 24 28 13 15 1017.0 - 0.0
29/07:00am 12.7 8.5 9.6 81 1.6 NNE 22 30 12 16 1017.1 - 0.0
29/06:30am 12.3 8.7 10.0 86 1.2 NNE 19 24 10 13 1017.1 - 0.0
29/06:00am 11.6 8.9 10.3 92 0.7 NNE 15 22 8 12 1017.0 1017.0 0.0
29/05:30am 11.8 8.3 10.1 89 0.9 NNE 19 24 10 13 1017.1 - 0.0
29/05:00am 11.6 8.5 10.4 92 0.6 NNE 17 20 9 11 1017.2 - 0.0
29/04:30am 12.4 10.2 10.9 90 0.8 N 13 19 7 10 1017.2 - 0.0
29/04:00am 12.5 9.7 11.2 92 0.7 NNE 17 20 9 11 1017.3 - 0.0
29/03:30am 12.8 10.5 11.7 93 0.6 NNE 15 17 8 9 1017.5 - 0.0
29/03:00am 13.6 11.1 12.3 92 0.7 NNE 17 19 9 10 1017.6 1017.7 0.0
29/02:30am 14.3 12.4 13.0 92 0.7 NNE 15 19 8 10 1017.7 - 0.0
29/02:00am 14.6 12.4 13.3 92 0.7 NNE 17 20 9 11 1018.1 - 0.0
29/01:30am 14.3 12.5 13.2 93 0.6 NNE 15 17 8 9 1018.4 - 0.0
29/01:00am 15.1 13.0 13.5 90 0.9 NNE 17 20 9 11 1018.5 - 0.0
29/12:30am 15.8 14.2 13.8 88 1.1 N 15 19 8 10 1018.8 - 0.0
29/12:00am 15.6 14.9 14.2 91 0.8 NNE 11 13 6 7 1018.9 1019.0 0.0
 
Date/Time
WST
Temp
°C
App
Temp
°C
Dew
Point
°C
Rel
Hum
%
Delta-T
°C
Wind Press
QNH
hPa
Press
MSL
hPa
Rain since
9am
mm
Dir  Spd
km/h
Gust
km/h
Spd
kts
Gust
kts
28/11:30pm 15.2 15.1 13.8 91 0.8 NNE 7 11 4 6 1019.0 - 0.0
28/11:00pm 15.4 14.7 14.2 92 0.7 NNE 11 13 6 7 1019.2 - 0.0
28/10:30pm 16.0 15.3 14.3 90 1.0 NNE 11 13 6 7 1019.4 - 0.0
28/10:00pm 16.0 15.8 14.6 91 0.8 NNE 9 13 5 7 1019.6 - 0.0
28/09:30pm 16.1 16.9 14.7 91 0.8 NW 4 7 2 4 1020.2 - 0.0
28/09:00pm 16.0 15.9 15.0 94 0.6 N 9 13 5 7 1020.1 1020.2 0.0
28/08:30pm 16.2 15.7 14.8 91 0.8 SE 11 13 6 7 1019.9 - 0.0
28/08:00pm 16.2 16.0 14.8 91 0.8 N 9 13 5 7 1020.5 - 0.0
28/07:30pm 16.4 17.1 14.5 88 1.1 E 4 9 2 5 1020.1 - 0.0
28/07:00pm 16.4 17.7 14.0 86 1.4 CALM 0 6 0 3 1020.1 - 0.0
28/06:30pm 16.6 16.5 13.8 83 1.6 E 7 9 4 5 1019.5 - 0.0
28/06:00pm 18.2 18.3 13.9 76 2.5 W 6 7 3 4 1019.4 1019.5 0.0
28/05:30pm 18.7 17.9 13.0 69 3.2 NW 9 13 5 7 1019.4 - 0.0
28/05:00pm 19.1 17.6 11.9 63 4.0 NW 11 15 6 8 1019.2 - 0.0
28/04:30pm 19.9 18.1 10.7 55 5.0 W 11 15 6 8 1019.0 - 0.0
28/04:00pm 22.0 20.1 7.5 39 7.5 WNW 7 15 4 8 1018.6 - 0.0
28/03:30pm 22.6 20.3 7.4 37 7.9 WNW 9 11 5 6 1018.6 - 0.0
28/03:00pm 22.2 20.0 6.2 35 8.1 W 7 9 4 5 1018.6 1018.7 0.0
28/02:30pm 21.9 22.1 10.4 48 6.3 CALM 0 0 0 0 1018.4 - 0.0
28/02:00pm 21.4 21.0 12.3 56 5.1 ENE 6 11 3 6 1018.5 - 0.0
28/01:30pm 21.9 21.3 10.4 48 6.3 ESE 4 7 2 4 1018.7 - 0.0
28/01:00pm 21.4 20.0 8.7 44 6.7 N 6 7 3 4 1019.2 - 0.0
28/12:30pm 20.6 18.2 10.0 50 5.7 N 13 15 7 8 1019.7 - 0.0
28/12:00pm 19.6 17.6 11.6 60 4.4 N 13 15 7 8 1020.3 1020.4 0.0
28/11:30am 18.8 16.4 11.5 62 4.0 N 15 24 8 13 1020.5 - 0.0
28/11:00am 17.4 13.8 9.8 61 4.0 NNE 19 24 10 13 1021.0 - 0.0
28/10:30am 16.0 11.1 8.6 61 3.8 NNE 24 30 13 16 1021.0 - 0.0
28/10:00am 15.5 10.1 8.2 62 3.7 NNE 26 33 14 18 1021.4 - 0.0
28/09:30am 13.8 8.7 7.7 66 3.0 NNE 24 32 13 17 1021.6 - 0.0
28/09:00am 12.9 8.7 7.6 70 2.6 NNE 19 28 10 15 1021.8 1021.9 0.0
28/08:30am 12.0 7.6 7.2 72 2.3 NNE 20 28 11 15 1021.5 - 0.0
28/08:00am 11.0 6.1 7.0 76 1.9 NNE 22 28 12 15 1021.6 - 0.0
28/07:30am 9.5 5.0 6.8 83 1.3 NE 20 22 11 12 1021.3 - 0.0
28/07:00am 9.0 4.4 6.6 85 1.1 NE 20 22 11 12 1021.1 - 0.0
28/06:30am 9.1 6.7 7.2 88 0.9 ENE 9 17 5 9 1021.0 - 0.0
28/06:00am 9.3 6.1 7.0 85 1.1 NE 13 17 7 9 1020.6 1020.7 0.0
28/05:30am 9.6 6.8 7.1 84 1.2 NE 11 17 6 9 1020.3 - 0.0
28/05:00am 10.7 8.7 7.0 78 1.8 S 7 11 4 6 1020.3 - 0.0
28/04:30am 10.6 8.7 7.7 82 1.4 ENE 7 11 4 6 1020.0 - 0.0
28/04:00am 10.5 7.5 7.6 82 1.4 ENE 13 17 7 9 1019.7 - 0.0
28/03:30am 10.3 6.5 7.6 83 1.3 NE 17 20 9 11 1020.2 - 0.0
28/03:00am 10.1 7.1 7.8 86 1.1 NNE 13 17 7 9 1020.5 1020.6 0.0
28/02:30am 9.9 7.7 7.7 86 1.1 ENE 9 11 5 6 1021.0 - 0.0
28/02:00am 10.0 7.5 8.0 87 1.0 NE 11 15 6 8 1021.0 - 0.0
28/01:30am 11.0 7.4 8.4 84 1.3 NE 17 20 9 11 1020.6 - 0.0
28/01:00am 11.0 7.7 8.1 82 1.4 NNE 15 17 8 9 1021.2 - 0.0
28/12:30am 9.4 7.8 8.2 92 0.6 ESE 6 6 3 3 1021.6 - 0.0
28/12:00am 9.9 8.4 8.5 91 0.7 SE 6 7 3 4 1021.9 1022.0 0.0
 
Date/Time
WST
Temp
°C
App
Temp
°C
Dew
Point
°C
Rel
Hum
%
Delta-T
°C
Wind Press
QNH
hPa
Press
MSL
hPa
Rain since
9am
mm
Dir  Spd
km/h
Gust
km/h
Spd
kts
Gust
kts
27/11:30pm 9.7 8.2 8.5 92 0.6 S 6 9 3 5 1022.4 - 0.0
27/11:00pm 10.1 7.8 8.9 92 0.6 E 11 13 6 7 1022.4 - 0.0
27/10:30pm 10.9 9.0 8.9 87 1.0 SSE 9 13 5 7 1022.6 - 0.0
27/10:00pm 10.2 8.8 9.0 92 0.6 E 6 11 3 6 1022.3 - 0.0
27/09:30pm 10.3 8.0 9.1 92 0.6 E 11 13 6 7 1022.2 - 0.0
27/09:00pm 10.7 9.3 9.5 92 0.6 SE 7 9 4 5 1022.6 1022.7 0.0
27/08:30pm 10.8 8.6 9.2 90 0.8 ESE 11 13 6 7 1022.1 - 0.0
27/08:00pm 11.9 8.9 9.3 84 1.3 SW 15 17 8 9 1022.1 - 0.0
27/07:30pm 12.2 12.0 10.5 89 0.9 E 2 7 1 4 1021.3 - 0.0
27/07:00pm 12.9 10.5 10.2 84 1.4 SSE 13 13 7 7 1021.0 - 0.0
27/06:30pm 13.9 12.0 10.5 80 1.8 S 11 11 6 6 1021.0 - 0.0
27/06:00pm 15.3 13.8 10.6 73 2.5 S 9 11 5 6 1020.8 1020.9 0.0
27/05:30pm 16.2 15.5 12.0 76 2.3 ESE 7 9 4 5 1020.9 - 0.0
27/05:00pm 17.1 16.2 12.6 75 2.5 SSE 9 11 5 6 1021.1 - 0.0
27/04:30pm 17.4 16.4 12.3 72 2.8 SE 9 13 5 7 1021.0 - 0.0
27/04:00pm 18.2 17.8 12.9 71 3.0 ENE 7 11 4 6 1021.2 - 0.0
27/03:30pm 18.5 17.1 10.9 61 4.1 ENE 9 11 5 6 1021.3 - 0.0
27/03:00pm 18.8 15.7 10.2 57 4.6 NE 17 22 9 12 1021.1 1021.2 0.0
27/02:30pm 18.2 16.7 10.6 61 4.1 NE 9 13 5 7 1021.0 - 0.0
27/02:00pm 19.1 16.3 8.5 50 5.5 NE 13 20 7 11 1021.5 - 0.0
27/01:30pm 19.3 15.4 8.8 50 5.5 NE 19 28 10 15 1021.5 - 0.0
27/01:00pm 18.2 13.3 8.5 53 5.0 NE 24 32 13 17 1021.8 - 0.0
27/12:30pm 17.2 12.8 9.1 59 4.2 ENE 22 32 12 17 1022.1 - 0.0
27/12:00pm 16.7 11.5 8.7 59 4.1 ENE 26 33 14 18 1023.0 1023.1 0.0
27/11:30am 15.2 9.8 8.2 63 3.5 ENE 26 32 14 17 1023.5 - 0.0
27/11:00am 15.0 10.9 8.5 65 3.3 NE 20 26 11 14 1024.3 - 0.0
27/10:30am 13.9 7.0 6.3 60 3.6 NNE 32 44 17 24 1024.8 - 0.0
27/10:00am 14.1 8.9 7.1 62 3.4 NE 24 32 13 17 1025.5 - 0.0
27/09:30am 13.3 11.4 6.9 65 3.1 NNE 6 11 3 6 1025.5 - 0.0
27/09:00am 11.8 8.4 7.7 76 2.0 NE 15 20 8 11 1024.7 1024.8 0.2
27/08:00am 10.1 5.5 6.4 78 1.7 ENE 20 26 11 14 1023.7 - 0.2
27/07:30am 8.5 4.8 6.1 85 1.1 NNE 15 17 8 9 1024.0 - 0.2
27/07:00am 8.2 3.5 6.0 86 1.0 NE 20 22 11 12 1023.9 - 0.2
27/06:30am 7.8 3.7 6.0 88 0.8 NE 17 20 9 11 1023.7 - 0.2
27/06:00am 8.7 4.0 6.1 84 1.2 ENE 20 24 11 13 1024.1 1024.2 0.2
27/05:30am 9.3 6.7 6.0 80 1.5 NE 9 17 5 9 1023.9 - 0.2
27/05:00am 8.4 5.2 6.7 89 0.8 ENE 13 17 7 9 1024.4 - 0.2
27/04:30am 7.3 4.3 5.9 91 0.6 ESE 11 13 6 7 1024.8 - 0.2
27/04:00am 8.1 4.4 6.1 87 0.9 SE 15 19 8 10 1025.2 - 0.2
27/03:30am 7.4 2.6 5.6 88 0.8 E 20 20 11 11 1025.0 - 0.2
27/03:00am 7.2 4.9 5.7 90 0.7 SE 7 11 4 6 1025.5 1025.6 0.2
27/02:30am 7.5 4.8 5.6 88 0.9 SE 9 11 5 6 1025.4 - 0.2
27/02:00am 7.5 4.0 5.5 87 0.9 S 13 15 7 8 1025.2 - 0.2
27/01:30am 6.3 3.1 4.9 91 0.6 SSW 11 13 6 7 1026.0 - 0.2
27/01:00am 7.1 5.3 5.3 88 0.8 S 4 7 2 4 1026.2 - 0.2
27/12:30am 7.8 3.6 5.9 88 0.9 ESE 17 20 9 11 1025.6 - 0.2
27/12:00am 8.4 3.6 5.7 83 1.2 ESE 20 22 11 12 1025.6 1025.7 0.2
 
Date/Time
WST
Temp
°C
App
Temp
°C
Dew
Point
°C
Rel
Hum
%
Delta-T
°C
Wind Press
QNH
hPa
Press
MSL
hPa
Rain since
9am
mm
Dir  Spd
km/h
Gust
km/h
Spd
kts
Gust
kts
26/11:30pm 8.7 5.2 5.6 81 1.4 SE 13 13 7 7 1025.8 - 0.2
26/11:00pm 8.4 5.4 6.0 85 1.1 SE 11 15 6 8 1025.7 - 0.2
26/10:30pm 8.6 5.5 5.7 82 1.3 ESE 11 15 6 8 1025.7 - 0.2
26/10:00pm 7.7 5.4 5.9 88 0.8 SE 7 9 4 5 1026.0 - 0.2
26/09:30pm 7.9 4.9 6.1 88 0.8 SSE 11 13 6 7 1026.1 - 0.2
26/09:00pm 7.1 4.0 5.7 91 0.6 SE 11 13 6 7 1026.3 1026.4 0.2
26/08:30pm 9.0 5.4 6.8 86 1.0 SE 15 17 8 9 1026.2 - 0.2
26/08:00pm 9.4 5.5 7.3 87 1.0 SE 17 17 9 9 1026.2 - 0.2
26/07:30pm 9.0 5.1 7.1 88 0.9 SSE 17 17 9 9 1025.9 - 0.2
26/07:00pm 9.7 7.4 7.6 87 1.0 SE 9 11 5 6 1025.8 - 0.2
26/06:30pm 11.2 7.9 7.9 80 1.6 SSE 15 15 8 8 1025.6 - 0.2

Other Formats:

Comma delimited format used in spreadsheet applications
http://www.bom.gov.au/fwo/IDW60801/IDW60801.94403.axf

JavaScript Object Notation format (JSON) in row-major order
http://www.bom.gov.au/fwo/IDW60801/IDW60801.94403.json